createdAt,value
2023-04-26T00:00:11.482Z,100887.69
2023-04-26T00:04:16.099Z,100886.00
2023-04-26T00:08:19.297Z,100887.31
2023-04-26T00:12:22.347Z,100888.81
2023-04-26T00:16:25.499Z,100888.09
2023-04-26T00:20:30.136Z,100890.09
2023-04-26T00:24:33.436Z,100889.06
2023-04-26T00:28:36.319Z,100890.59
2023-04-26T00:32:39.516Z,100892.91
2023-04-26T00:36:44.935Z,100880.34
2023-04-26T00:40:47.862Z,100886.22
2023-04-26T00:44:55.234Z,100881.63
2023-04-26T00:48:58.616Z,100891.31
2023-04-26T00:53:03.765Z,100873.50
2023-04-26T00:57:07.259Z,100879.47
2023-04-26T01:01:10.230Z,100876.06
2023-04-26T01:05:13.576Z,100873.78
2023-04-26T01:09:19.037Z,100882.34
2023-04-26T01:13:22.073Z,100880.34
2023-04-26T01:17:26.029Z,100892.53
2023-04-26T01:21:28.980Z,100887.72
2023-04-26T01:25:34.480Z,100895.38
2023-04-26T01:29:37.710Z,100895.81
2023-04-26T01:33:40.696Z,100899.38
2023-04-26T01:37:43.640Z,100894.84
2023-04-26T01:41:47.842Z,100890.59
2023-04-26T01:45:50.925Z,100883.81
2023-04-26T01:50:07.368Z,100888.94
2023-04-26T01:54:10.232Z,100884.41
2023-04-26T01:58:14.470Z,100881.97
2023-04-26T02:02:18.126Z,100877.13
2023-04-26T02:06:21.407Z,100881.00
2023-04-26T02:10:24.307Z,100883.41
2023-04-26T02:14:28.620Z,100885.53
2023-04-26T02:18:31.504Z,100884.69
2023-04-26T02:22:34.361Z,100884.69
2023-04-26T02:26:37.320Z,100885.56
2023-04-26T02:30:41.928Z,100878.31
2023-04-26T02:34:45.641Z,100883.00
2023-04-26T02:38:48.686Z,100886.69
2023-04-26T02:42:51.927Z,100886.38
2023-04-26T02:46:56.292Z,100884.13
2023-04-26T02:50:59.320Z,100872.50
2023-04-26T02:55:02.383Z,100886.91
2023-04-26T02:59:05.337Z,100878.59
2023-04-26T03:03:09.640Z,100877.88
2023-04-26T03:07:12.662Z,100871.91
2023-04-26T03:11:15.570Z,100874.88
2023-04-26T03:15:18.679Z,100869.94
2023-04-26T03:19:23.076Z,100858.84
2023-04-26T03:23:26.491Z,100853.59
2023-04-26T03:27:30.766Z,100865.38
2023-04-26T03:31:33.967Z,100857.44
2023-04-26T03:35:38.569Z,100853.75
2023-04-26T03:39:41.771Z,100848.31
2023-04-26T03:43:45.873Z,100851.50
2023-04-26T03:47:48.812Z,100841.28
2023-04-26T03:51:53.490Z,100848.94
2023-04-26T03:55:56.633Z,100848.66
2023-04-26T03:59:59.548Z,100855.50
2023-04-26T04:04:02.942Z,100849.94
2023-04-26T04:08:07.523Z,100849.94
2023-04-26T04:12:11.676Z,100858.00
2023-04-26T04:16:14.942Z,100867.03
2023-04-26T04:20:18.985Z,100858.25
2023-04-26T04:24:23.892Z,100861.78
2023-04-26T04:28:28.310Z,100861.38
2023-04-26T04:32:35.201Z,100872.63
2023-04-26T04:36:40.873Z,100875.75
2023-04-26T04:40:45.460Z,100868.81
2023-04-26T04:44:50.199Z,100874.47
2023-04-26T04:48:54.603Z,100875.34
2023-04-26T04:52:57.975Z,100884.25
2023-04-26T04:57:03.045Z,100879.59
2023-04-26T05:01:07.541Z,100893.16
2023-04-26T05:05:32.134Z,100892.72
2023-04-26T05:09:35.156Z,100899.38
2023-04-26T05:13:40.259Z,100901.75
2023-04-26T05:17:43.750Z,100895.03
2023-04-26T05:21:53.552Z,100901.81
2023-04-26T05:25:56.644Z,100902.59
2023-04-26T05:30:27.613Z,100906.38
2023-04-26T05:34:52.079Z,100908.81
2023-04-26T05:38:55.014Z,100914.81
2023-04-26T05:42:58.058Z,100919.81
2023-04-26T05:47:03.974Z,100924.31
2023-04-26T05:51:07.408Z,100921.91
2023-04-26T05:55:11.384Z,100926.25
2023-04-26T05:59:14.417Z,100919.66
2023-04-26T06:03:19.424Z,100928.44
2023-04-26T06:07:22.649Z,100928.75
2023-04-26T06:11:26.964Z,100924.72
2023-04-26T06:15:31.822Z,100927.31
2023-04-26T06:19:36.881Z,100928.41
2023-04-26T06:23:39.819Z,100918.63
2023-04-26T06:27:42.677Z,100916.00
2023-04-26T06:31:46.164Z,100913.84
2023-04-26T06:35:50.782Z,100900.50
2023-04-26T06:39:54.816Z,100891.31
2023-04-26T06:43:57.833Z,100885.88
2023-04-26T06:48:07.213Z,100872.63
2023-04-26T06:52:11.998Z,100872.69
2023-04-26T06:56:15.385Z,100862.88
2023-04-26T07:00:19.072Z,100866.22
2023-04-26T07:04:22.055Z,100865.25
2023-04-26T07:08:26.522Z,100881.81
2023-04-26T07:12:29.436Z,100883.28
2023-04-26T07:16:32.554Z,100877.75
2023-04-26T07:20:36.186Z,100891.72
2023-04-26T07:24:40.479Z,100878.13
2023-04-26T07:28:43.592Z,100892.94
2023-04-26T07:32:46.475Z,100893.00
2023-04-26T07:36:49.498Z,100887.03
2023-04-26T07:40:53.760Z,100876.41
2023-04-26T07:44:56.631Z,100880.34
2023-04-26T07:48:59.492Z,100871.88
2023-04-26T07:53:02.379Z,100880.19
2023-04-26T07:57:06.776Z,100873.00
2023-04-26T08:01:11.789Z,100871.50
2023-04-26T08:05:15.169Z,100869.72
2023-04-26T08:09:18.626Z,100876.94
2023-04-26T08:13:23.046Z,100878.66
2023-04-26T08:17:25.951Z,100880.75
2023-04-26T08:21:28.970Z,100868.47
2023-04-26T08:25:34.864Z,100872.06
2023-04-26T08:29:39.136Z,100879.03
2023-04-26T08:33:42.005Z,100891.75
2023-04-26T08:37:45.704Z,100892.53
2023-04-26T08:41:51.220Z,100903.22
2023-04-26T08:45:56.021Z,100888.53
2023-04-26T08:49:59.846Z,100895.28
2023-04-26T08:54:05.083Z,100907.53
2023-04-26T08:58:10.133Z,100904.66
2023-04-26T09:02:18.443Z,100902.53
2023-04-26T09:06:21.745Z,100893.50
2023-04-26T09:10:25.354Z,100890.91
2023-04-26T09:14:28.641Z,100885.97
2023-04-26T09:18:34.214Z,100880.81
2023-04-26T09:22:38.967Z,100881.38
2023-04-26T09:26:42.099Z,100892.09
2023-04-26T09:30:45.096Z,100889.91
2023-04-26T09:34:49.369Z,100887.06
2023-04-26T09:38:52.405Z,100874.41
2023-04-26T09:42:59.347Z,100882.84
2023-04-26T09:47:03.325Z,100878.22
2023-04-26T09:51:12.441Z,100885.66
2023-04-26T09:55:34.636Z,100880.22
2023-04-26T09:59:46.269Z,100881.69
2023-04-26T10:03:49.483Z,100880.19
2023-04-26T10:07:54.045Z,100880.81
2023-04-26T10:11:57.285Z,100879.44
2023-04-26T10:16:01.098Z,100879.09
2023-04-26T10:20:06.038Z,100868.47
2023-04-26T10:24:11.518Z,100866.81
2023-04-26T10:28:14.435Z,100867.47
2023-04-26T10:32:18.708Z,100880.28
2023-04-26T10:36:22.353Z,100878.59
2023-04-26T10:40:27.845Z,100870.97
2023-04-26T10:44:41.659Z,100862.75
2023-04-26T10:48:44.694Z,100853.56
2023-04-26T10:53:08.848Z,100860.81
2023-04-26T10:57:13.189Z,100859.88
2023-04-26T11:01:17.630Z,100858.81
2023-04-26T11:05:50.792Z,100862.16
2023-04-26T11:09:53.709Z,100860.88
2023-04-26T11:13:58.405Z,100850.78
2023-04-26T11:18:03.466Z,100856.00
2023-04-26T11:22:07.976Z,100839.31
2023-04-26T11:26:10.995Z,100837.09
2023-04-26T11:30:15.552Z,100831.31
2023-04-26T11:34:18.718Z,100840.16
2023-04-26T11:38:23.043Z,100830.03
2023-04-26T11:42:26.744Z,100837.31
2023-04-26T11:46:31.277Z,100829.72
2023-04-26T11:50:35.785Z,100838.78
2023-04-26T11:54:38.736Z,100837.63
2023-04-26T11:58:41.634Z,100839.31
2023-04-26T12:02:49.458Z,100832.19
2023-04-26T12:06:52.812Z,100831.81
2023-04-26T12:10:56.555Z,100835.31
2023-04-26T12:14:59.530Z,100836.25
2023-04-26T12:19:06.656Z,100840.13
2023-04-26T12:23:10.257Z,100828.72
2023-04-26T12:27:21.354Z,100826.06
2023-04-26T12:31:24.239Z,100823.97
2023-04-26T12:35:28.563Z,100825.94
2023-04-26T12:39:31.522Z,100825.56
2023-04-26T12:43:34.627Z,100825.91
2023-04-26T12:47:37.615Z,100837.59
2023-04-26T12:51:41.985Z,100839.19
2023-04-26T12:55:45.321Z,100837.91
2023-04-26T12:59:48.545Z,100832.16
2023-04-26T13:03:51.718Z,100839.94
2023-04-26T13:07:56.312Z,100827.38
2023-04-26T13:11:59.446Z,100825.16
2023-04-26T13:16:04.762Z,100832.78
2023-04-26T13:20:08.677Z,100817.13
2023-04-26T13:24:12.992Z,100823.94
2023-04-26T13:28:16.608Z,100824.13
2023-04-26T13:32:19.819Z,100816.28
2023-04-26T13:36:22.886Z,100820.03
2023-04-26T13:40:27.102Z,100815.06
2023-04-26T13:44:30.053Z,100813.53
2023-04-26T13:48:33.093Z,100825.41
2023-04-26T13:52:36.385Z,100832.69
2023-04-26T13:56:40.890Z,100821.06
2023-04-26T14:00:43.824Z,100822.88
2023-04-26T14:04:46.982Z,100821.25
2023-04-26T14:08:49.986Z,100817.81
2023-04-26T14:12:54.954Z,100810.78
2023-04-26T14:16:57.867Z,100808.38
2023-04-26T14:21:00.875Z,100797.75
2023-04-26T14:25:04.241Z,100799.03
2023-04-26T14:29:09.006Z,100805.41
2023-04-26T14:33:11.900Z,100801.13
2023-04-26T14:37:15.302Z,100803.78
2023-04-26T14:41:18.821Z,100795.81
2023-04-26T14:45:27.868Z,100797.75
2023-04-26T14:49:36.590Z,100784.56
2023-04-26T14:53:40.009Z,100787.59
2023-04-26T14:57:43.179Z,100790.19
2023-04-26T15:01:47.539Z,100783.91
2023-04-26T15:05:50.814Z,100782.56
2023-04-26T15:09:53.706Z,100778.28
2023-04-26T15:13:56.623Z,100769.69
2023-04-26T15:18:01.913Z,100782.63
2023-04-26T15:22:05.863Z,100781.50
2023-04-26T15:26:09.020Z,100776.34
2023-04-26T15:30:12.240Z,100781.75
2023-04-26T15:34:16.677Z,100785.47
2023-04-26T15:38:19.695Z,100771.75
2023-04-26T15:42:22.761Z,100772.16
2023-04-26T15:46:25.800Z,100763.91
2023-04-26T15:50:30.414Z,100773.47
2023-04-26T15:54:33.421Z,100762.19
2023-04-26T15:58:39.816Z,100771.19
2023-04-26T16:02:45.055Z,100781.16
2023-04-26T16:06:49.637Z,100776.28
2023-04-26T16:10:52.649Z,100778.47
2023-04-26T16:14:56.353Z,100770.47
2023-04-26T16:18:59.272Z,100773.25
2023-04-26T16:23:04.145Z,100767.31
2023-04-26T16:27:07.026Z,100775.84
2023-04-26T16:31:10.391Z,100755.28
2023-04-26T16:35:14.415Z,100757.25
2023-04-26T16:39:19.545Z,100758.84
2023-04-26T16:43:22.473Z,100756.94
2023-04-26T16:47:25.455Z,100755.34
2023-04-26T16:51:28.813Z,100771.81
2023-04-26T16:55:33.723Z,100771.88
2023-04-26T16:59:36.638Z,100769.09
2023-04-26T17:03:39.814Z,100770.41
2023-04-26T17:07:42.950Z,100768.47
2023-04-26T17:11:47.237Z,100765.97
2023-04-26T17:15:50.206Z,100763.03
2023-04-26T17:19:53.179Z,100767.09
2023-04-26T17:23:56.086Z,100761.88
2023-04-26T17:28:00.375Z,100772.84
2023-04-26T17:32:03.690Z,100756.53
2023-04-26T17:36:07.005Z,100758.91
2023-04-26T17:40:10.677Z,100762.72
2023-04-26T17:44:15.038Z,100776.78
2023-04-26T17:48:18.723Z,100774.41
2023-04-26T17:52:21.722Z,100778.53
2023-04-26T17:56:25.401Z,100781.44
2023-04-26T18:00:29.935Z,100785.78
2023-04-26T18:04:33.676Z,100787.88
2023-04-26T18:08:37.584Z,100780.00
2023-04-26T18:12:40.756Z,100783.78
2023-04-26T18:16:45.215Z,100777.34
2023-04-26T18:20:48.142Z,100789.13
2023-04-26T18:24:51.144Z,100790.56
2023-04-26T18:28:54.975Z,100793.66
2023-04-26T18:32:59.576Z,100795.09
2023-04-26T18:37:02.845Z,100790.84
2023-04-26T18:41:05.976Z,100795.41
2023-04-26T18:45:09.639Z,100800.22
2023-04-26T18:49:14.133Z,100802.94
2023-04-26T18:53:17.571Z,100804.13
2023-04-26T18:57:22.711Z,100802.59
2023-04-26T19:01:27.198Z,100806.34
2023-04-26T19:05:31.829Z,100798.16
2023-04-26T19:09:50.553Z,100812.56
2023-04-26T19:13:56.613Z,100813.13
2023-04-26T19:17:59.642Z,100828.56
2023-04-26T19:22:04.507Z,100839.22
2023-04-26T19:26:09.281Z,100845.53
2023-04-26T19:30:12.839Z,100834.50
2023-04-26T19:34:16.386Z,100844.16
2023-04-26T19:38:21.693Z,100838.69
2023-04-26T19:42:24.781Z,100832.75
2023-04-26T19:46:28.234Z,100839.63
2023-04-26T19:50:32.583Z,100848.56
2023-04-26T19:54:37.492Z,100845.19
2023-04-26T19:58:40.812Z,100848.66
2023-04-26T20:02:44.040Z,100847.25
2023-04-26T20:06:47.177Z,100854.22
2023-04-26T20:10:53.997Z,100856.31
2023-04-26T20:14:57.010Z,100857.41
2023-04-26T20:19:00.650Z,100857.78
2023-04-26T20:23:04.530Z,100855.53
2023-04-26T20:27:10.701Z,100859.28
2023-04-26T20:31:15.202Z,100859.88
2023-04-26T20:35:21.601Z,100858.72
2023-04-26T20:39:24.668Z,100853.75
2023-04-26T20:43:29.159Z,100858.09
2023-04-26T20:47:33.525Z,100858.53
2023-04-26T20:51:36.374Z,100848.88
2023-04-26T20:55:40.416Z,100853.66
2023-04-26T20:59:45.078Z,100856.84
2023-04-26T21:03:48.445Z,100856.19
2023-04-26T21:07:52.141Z,100845.94
2023-04-26T21:11:55.163Z,100852.16
2023-04-26T21:16:02.541Z,100860.06
2023-04-26T21:20:05.841Z,100856.69
2023-04-26T21:24:12.522Z,100857.41
2023-04-26T21:28:15.497Z,100866.25
2023-04-26T21:32:20.141Z,100862.38
2023-04-26T21:36:23.108Z,100868.69
2023-04-26T21:40:26.105Z,100859.47
2023-04-26T21:44:29.125Z,100859.47
2023-04-26T21:48:33.350Z,100865.19
2023-04-26T21:52:37.634Z,100866.03
2023-04-26T21:56:41.405Z,100871.00
2023-04-26T22:00:44.317Z,100854.72
2023-04-26T22:04:48.752Z,100859.88
2023-04-26T22:08:51.774Z,100868.25
2023-04-26T22:12:54.962Z,100862.81
2023-04-26T22:16:57.995Z,100868.97
2023-04-26T22:21:02.271Z,100867.66
2023-04-26T22:25:05.507Z,100866.34
2023-04-26T22:29:08.884Z,100866.03
2023-04-26T22:33:12.382Z,100876.25
2023-04-26T22:37:21.401Z,100875.66
2023-04-26T22:41:24.850Z,100877.09
2023-04-26T22:45:27.933Z,100878.94
2023-04-26T22:49:30.963Z,100868.78
2023-04-26T22:53:35.299Z,100887.50
2023-04-26T22:57:38.420Z,100880.34
2023-04-26T23:01:41.693Z,100877.84
2023-04-26T23:05:45.598Z,100873.13
2023-04-26T23:09:49.998Z,100875.78
2023-04-26T23:13:54.460Z,100885.13
2023-04-26T23:17:57.431Z,100890.25
2023-04-26T23:22:00.323Z,100888.91
2023-04-26T23:26:08.457Z,100892.31
2023-04-26T23:30:13.872Z,100899.09
2023-04-26T23:34:16.723Z,100902.84
2023-04-26T23:38:19.726Z,100898.59
2023-04-26T23:42:24.053Z,100903.84
2023-04-26T23:46:27.041Z,100903.84
2023-04-26T23:50:29.967Z,100900.09
2023-04-26T23:54:32.891Z,100909.78
2023-04-26T23:58:37.224Z,100919.06
